AFR248 LFPG-RPLL
Flight info
| Callsign | AFR248 |
|---|---|
| Flight time | N/A |
| Altitude | 33000 |
| Route | LANVI DCT LUPEN UM164 UTABA/N0485F350 DCT INPUL DCT SASAL DCT TEGRI DCT UDROS UM859 KARDE UN644 ROLIN DCT TETRO/N0495F370 DCT BARAD M747 LUSAL N199 RASAM L88 METKA B476 DARVA/K0895F370 T898 OGOLI N193 SR L163 TISIB L141 KAMUD/K0893S1190 W186 SADAN Y1 OMBON W245 OVRAL B330 KWE W181 GLB/K0902S1250 W181 DUDIT A599 POU B330 TAMOT/N0484F410 B330 BIGEX DCT POVAM DCT NOPER V642 NOMAN A461 AVMUP W16 TADEL TADEL7R |
| Aircraft | A359/H-SDE2E3GHIJ3J4J5LM1ORWXY/LB1D1 |
Departure
| Time | 2026-05-04 21:21 |
|---|---|
| Airport | Charles de Gaulle International Airport (LFPG) |
Arrival
| Time | N/A |
|---|---|
| Airport | Ninoy Aquino International Airport (RPLL) |
| Time | Latitude | Longitude | Altitude | Speed | Heading |
|---|---|---|---|---|---|
| 2026-05-04 20:15 | 49.00144 | 2.57720 | 361 ft | 0 kts | 356° |
| 2026-05-04 21:09 | 49.00137 | 2.57721 | 360 ft | 4 kts | 356° |
| 2026-05-04 21:10 | 49.00112 | 2.57723 | 360 ft | 2 kts | 356° |
| 2026-05-04 21:10 | 49.00090 | 2.57729 | 360 ft | 4 kts | 353° |
| 2026-05-04 21:10 | 49.00066 | 2.57735 | 360 ft | 4 kts | 335° |
| 2026-05-04 21:10 | 49.00048 | 2.57758 | 360 ft | 4 kts | 285° |
| 2026-05-04 21:11 | 49.00047 | 2.57797 | 360 ft | 4 kts | 255° |
| 2026-05-04 21:11 | 49.00056 | 2.57835 | 368 ft | 4 kts | 246° |
| 2026-05-04 21:11 | 49.00067 | 2.57873 | 360 ft | 4 kts | 252° |
| 2026-05-04 21:11 | 49.00070 | 2.57893 | 360 ft | 0 kts | 265° |
| 2026-05-04 21:15 | 49.00067 | 2.57839 | 369 ft | 9 kts | 265° |
| 2026-05-04 21:15 | 49.00047 | 2.57753 | 360 ft | 8 kts | 218° |
| 2026-05-04 21:15 | 48.99996 | 2.57715 | 368 ft | 8 kts | 225° |
| 2026-05-04 21:16 | 48.99976 | 2.57638 | 360 ft | 8 kts | 259° |
| 2026-05-04 21:16 | 48.99970 | 2.57550 | 360 ft | 9 kts | 264° |
| 2026-05-04 21:16 | 48.99965 | 2.57455 | 360 ft | 9 kts | 265° |
| 2026-05-04 21:16 | 48.99960 | 2.57354 | 363 ft | 10 kts | 265° |
| 2026-05-04 21:17 | 48.99953 | 2.57233 | 360 ft | 12 kts | 265° |
| 2026-05-04 21:17 | 48.99946 | 2.57092 | 366 ft | 14 kts | 265° |
| 2026-05-04 21:17 | 48.99937 | 2.56933 | 364 ft | 16 kts | 265° |
| 2026-05-04 21:17 | 48.99928 | 2.56768 | 368 ft | 16 kts | 265° |
| 2026-05-04 21:18 | 48.99919 | 2.56601 | 367 ft | 16 kts | 265° |
| 2026-05-04 21:18 | 48.99911 | 2.56434 | 367 ft | 16 kts | 265° |
| 2026-05-04 21:18 | 48.99902 | 2.56266 | 360 ft | 16 kts | 265° |
| 2026-05-04 21:18 | 48.99893 | 2.56098 | 364 ft | 16 kts | 262° |
| 2026-05-04 21:19 | 48.99827 | 2.56002 | 368 ft | 13 kts | 212° |
| 2026-05-04 21:19 | 48.99787 | 2.55880 | 364 ft | 13 kts | 249° |
| 2026-05-04 21:19 | 48.99720 | 2.55813 | 367 ft | 12 kts | 182° |
| 2026-05-04 21:19 | 48.99636 | 2.55826 | 367 ft | 13 kts | 171° |
| 2026-05-04 21:20 | 48.99603 | 2.55901 | 366 ft | 9 kts | 90° |
| 2026-05-04 21:20 | 48.99605 | 2.55940 | 360 ft | 0 kts | 85° |
| 2026-05-04 21:20 | 48.99619 | 2.56184 | 364 ft | 51 kts | 85° |
| 2026-05-04 21:21 | 48.99663 | 2.57008 | 362 ft | 102 kts | 85° |
| 2026-05-04 21:21 | 48.99731 | 2.58293 | 367 ft | 144 kts | 85° |
| 2026-05-04 21:21 | 48.99825 | 2.60023 | 487 ft | 169 kts | 83° |
| 2026-05-04 21:21 | 48.99925 | 2.61729 | 1015 ft | 164 kts | 84° |
| 2026-05-04 21:22 | 49.00014 | 2.63448 | 1469 ft | 163 kts | 84° |
| 2026-05-04 21:22 | 49.00098 | 2.65203 | 1925 ft | 165 kts | 85° |
| 2026-05-04 21:22 | 49.00191 | 2.66946 | 2352 ft | 166 kts | 84° |
| 2026-05-04 21:22 | 49.00287 | 2.68710 | 2695 ft | 168 kts | 84° |
| 2026-05-04 21:23 | 49.00382 | 2.70488 | 3044 ft | 170 kts | 85° |
| 2026-05-04 21:23 | 49.00477 | 2.72287 | 3381 ft | 171 kts | 85° |
| 2026-05-04 21:23 | 49.00570 | 2.74140 | 3577 ft | 182 kts | 85° |
| 2026-05-04 21:23 | 49.00667 | 2.76143 | 3725 ft | 197 kts | 86° |
| 2026-05-04 21:24 | 49.00595 | 2.78296 | 3900 ft | 211 kts | 96° |
| 2026-05-04 21:24 | 49.00383 | 2.80574 | 4068 ft | 226 kts | 98° |
| 2026-05-04 21:24 | 49.00134 | 2.83027 | 4235 ft | 242 kts | 98° |
| 2026-05-04 21:24 | 48.99872 | 2.85636 | 4487 ft | 256 kts | 98° |
| 2026-05-04 21:25 | 48.99599 | 2.88351 | 4928 ft | 262 kts | 98° |
| 2026-05-04 21:25 | 48.99322 | 2.91122 | 5460 ft | 265 kts | 98° |
| 2026-05-04 21:25 | 48.99042 | 2.93914 | 6022 ft | 268 kts | 98° |
| 2026-05-04 21:25 | 48.98763 | 2.96725 | 6581 ft | 270 kts | 98° |
| 2026-05-04 21:26 | 48.98520 | 2.99582 | 7120 ft | 274 kts | 97° |
| 2026-05-04 21:26 | 48.98286 | 3.02474 | 7690 ft | 277 kts | 97° |
| 2026-05-04 21:26 | 48.98049 | 3.05388 | 8269 ft | 279 kts | 97° |
| 2026-05-04 21:26 | 48.97809 | 3.08292 | 8859 ft | 281 kts | 97° |
| 2026-05-04 21:27 | 48.97561 | 3.11257 | 9403 ft | 285 kts | 98° |
| 2026-05-04 21:27 | 48.97307 | 3.14275 | 9971 ft | 288 kts | 98° |
| 2026-05-04 21:27 | 48.97048 | 3.17347 | 10314 ft | 300 kts | 98° |
| 2026-05-04 21:27 | 48.96777 | 3.20567 | 10562 ft | 314 kts | 98° |
| 2026-05-04 21:28 | 48.96490 | 3.23942 | 10804 ft | 329 kts | 98° |
| 2026-05-04 21:28 | 48.96189 | 3.27464 | 11049 ft | 343 kts | 98° |
| 2026-05-04 21:28 | 48.95875 | 3.31134 | 11287 ft | 356 kts | 98° |
| 2026-05-04 21:28 | 48.95548 | 3.34934 | 11535 ft | 369 kts | 98° |